Time;durP1;ratioP1;P1;durP2;ratioP2;P2;SDS_P1;SDS_P2;PMS_P1;PMS_P2;Temp;Humidity;BMP_temperature;BMP_pressure;BME280_temperature;BME280_humidity;BME280_pressure;Samples;Min_cycle;Max_cycle;Signal;HPM_P1;HPM_P2
2022/09/11 00:00:42;;;;;;;19.43;12.97;;;14.40;99.90;;;;;;5054076;28;20193;-87
2022/09/11 00:03:08;;;;;;;22.47;15.53;;;14.50;99.90;;;;;;5038129;28;20505;-87
2022/09/11 00:05:40;;;;;;;18.83;13.73;;;14.40;99.90;;;;;;5035734;28;20422;-94
2022/09/11 00:08:08;;;;;;;20.00;14.17;;;14.30;99.90;;;;;;5037293;28;20505;-89
2022/09/11 00:10:39;;;;;;;20.37;14.57;;;14.30;99.90;;;;;;5061322;28;20454;-95
2022/09/11 00:13:06;;;;;;;20.17;14.30;;;14.30;99.90;;;;;;5060551;28;20418;-87
2022/09/11 00:15:40;;;;;;;23.00;14.57;;;14.20;99.90;;;;;;5036381;28;20423;-87
2022/09/11 00:18:08;;;;;;;21.40;14.20;;;14.20;99.90;;;;;;5038783;28;20486;-86
2022/09/11 00:20:34;;;;;;;20.97;14.30;;;14.10;99.90;;;;;;5041132;28;20418;-89
2022/09/11 00:23:03;;;;;;;22.40;15.50;;;14.00;99.90;;;;;;5041807;28;20415;-87
2022/09/11 00:25:33;;;;;;;19.93;13.10;;;14.00;99.90;;;;;;5037785;28;20187;-87
2022/09/11 00:28:01;;;;;;;21.50;14.27;;;13.90;99.90;;;;;;5058589;28;20410;-87
2022/09/11 00:30:29;;;;;;;19.27;14.30;;;13.90;99.90;;;;;;5055504;28;20458;-87
2022/09/11 00:32:55;;;;;;;20.87;13.87;;;13.90;99.90;;;;;;5064214;28;20456;-87
2022/09/11 00:35:21;;;;;;;21.70;15.13;;;13.80;99.90;;;;;;5049492;28;20420;-94
2022/09/11 00:37:47;;;;;;;23.90;15.77;;;13.80;99.90;;;;;;5046481;28;20264;-92
2022/09/11 00:40:14;;;;;;;22.27;14.90;;;13.80;99.90;;;;;;5040043;28;20418;-95
2022/09/11 00:42:43;;;;;;;22.97;14.00;;;13.80;99.90;;;;;;5057629;28;20409;-95
2022/09/11 00:45:23;;;;;;;21.00;15.30;;;13.90;99.90;;;;;;5058458;28;20916;-93
2022/09/11 00:47:50;;;;;;;24.13;14.90;;;13.80;99.90;;;;;;5056749;28;20412;-87
2022/09/11 00:50:20;;;;;;;21.77;15.10;;;13.90;99.90;;;;;;5056848;28;20774;-94
2022/09/11 00:52:53;;;;;;;24.97;14.07;;;14.00;99.90;;;;;;5056616;28;20407;-90
2022/09/11 00:55:22;;;;;;;22.87;14.57;;;14.00;99.90;;;;;;5056852;28;20981;-89
2022/09/11 00:57:53;;;;;;;21.37;15.20;;;14.00;99.90;;;;;;5038934;28;20522;-88
2022/09/11 01:00:19;;;;;;;21.50;12.50;;;14.00;99.90;;;;;;5038931;28;20429;-90
2022/09/11 01:02:48;;;;;;;20.07;14.60;;;14.10;99.90;;;;;;5056289;28;20420;-92
2022/09/11 01:05:15;;;;;;;25.13;15.77;;;14.20;99.90;;;;;;5056543;28;20412;-89
2022/09/11 01:07:41;;;;;;;25.63;15.30;;;14.30;99.90;;;;;;5056387;28;20413;-88
2022/09/11 01:10:07;;;;;;;23.27;13.97;;;14.40;99.90;;;;;;5056205;28;20421;-87
2022/09/11 01:12:36;;;;;;;21.33;14.97;;;14.50;99.90;;;;;;5038207;28;20224;-92
2022/09/11 01:15:14;;;;;;;25.97;15.37;;;14.60;99.90;;;;;;5038220;28;20453;-87
2022/09/11 01:18:03;;;;;;;23.07;14.23;;;14.70;99.90;;;;;;5059194;28;20457;-89
2022/09/11 01:20:35;;;;;;;20.57;15.00;;;14.70;99.90;;;;;;5067807;28;21087;-91
2022/09/11 01:23:22;;;;;;;25.67;15.97;;;14.70;99.90;;;;;;5058265;28;20425;-93
2022/09/11 01:26:11;;;;;;;22.97;14.70;;;14.70;99.90;;;;;;5075508;28;21301;-89
2022/09/11 01:28:56;;;;;;;23.17;14.50;;;14.70;99.90;;;;;;5075841;28;20414;-89
2022/09/11 01:31:28;;;;;;;29.23;15.60;;;14.70;99.90;;;;;;5075705;28;20466;-87
2022/09/11 01:34:08;;;;;;;28.37;14.50;;;14.70;99.90;;;;;;5057802;28;20439;-88
2022/09/11 01:36:40;;;;;;;25.03;16.77;;;14.70;99.90;;;;;;5074704;28;20524;-89
2022/09/11 01:39:06;;;;;;;24.23;15.37;;;14.80;99.90;;;;;;5075846;28;20526;-93
2022/09/11 01:42:16;;;;;;;24.40;15.17;;;14.80;99.90;;;;;;5075300;28;20414;-92
2022/09/11 01:44:52;;;;;;;23.70;14.07;;;14.80;99.90;;;;;;4997283;28;20171;-90
2022/09/11 01:47:19;;;;;;;24.07;15.43;;;14.80;99.90;;;;;;5013505;28;20418;-88
2022/09/11 01:50:00;;;;;;;26.43;14.73;;;14.80;99.90;;;;;;5049506;28;20410;-89
2022/09/11 01:52:30;;;;;;;24.17;15.57;;;14.80;99.90;;;;;;5075515;28;20906;-87
2022/09/11 01:55:00;;;;;;;26.73;15.07;;;14.80;99.90;;;;;;5074807;28;20492;-92
2022/09/11 01:57:38;;;;;;;28.13;14.73;;;14.80;99.90;;;;;;5057437;28;20510;-87
2022/09/11 02:00:08;;;;;;;24.63;15.33;;;14.80;99.90;;;;;;5075325;28;20421;-90
2022/09/11 02:02:41;;;;;;;23.00;12.77;;;14.80;99.90;;;;;;5057273;28;20922;-92
2022/09/11 02:05:15;;;;;;;24.87;13.70;;;14.80;99.90;;;;;;5075588;28;20521;-92
2022/09/11 02:07:48;;;;;;;22.63;12.73;;;14.80;99.90;;;;;;5057667;28;20470;-93
2022/09/11 02:10:37;;;;;;;24.43;15.00;;;14.80;99.90;;;;;;5073956;28;20826;-88
2022/09/11 02:13:11;;;;;;;23.17;14.70;;;14.80;99.90;;;;;;5074844;28;20426;-87
2022/09/11 02:15:54;;;;;;;27.23;14.97;;;14.80;99.90;;;;;;5074897;28;20413;-86
2022/09/11 02:18:51;;;;;;;21.80;12.00;;;14.80;99.90;;;;;;5057130;28;20468;-87
2022/09/11 02:21:17;;;;;;;24.77;12.60;;;14.80;99.90;;;;;;5074723;28;20419;-89
2022/09/11 02:23:42;;;;;;;18.50;11.87;;;14.80;99.90;;;;;;5073649;28;20422;-87
2022/09/11 02:26:10;;;;;;;20.17;11.10;;;14.80;99.90;;;;;;5074889;28;20169;-89
2022/09/11 02:28:36;;;;;;;20.67;11.70;;;14.90;99.90;;;;;;5074719;28;20545;-86
2022/09/11 02:31:02;;;;;;;23.17;13.40;;;14.90;99.90;;;;;;5074397;28;20500;-88
2022/09/11 02:33:31;;;;;;;21.87;12.27;;;14.80;99.90;;;;;;5070879;28;20629;-88
2022/09/11 02:36:08;;;;;;;21.73;12.63;;;14.80;99.90;;;;;;5074527;28;20217;-86
2022/09/11 02:38:51;;;;;;;24.77;11.40;;;14.90;99.90;;;;;;5074130;28;20542;-87
2022/09/11 02:41:27;;;;;;;20.90;11.47;;;14.80;99.90;;;;;;5056682;28;20425;-90
2022/09/11 02:44:07;;;;;;;23.43;11.50;;;14.80;99.90;;;;;;5057109;28;20427;-89
2022/09/11 02:46:53;;;;;;;23.83;11.50;;;14.80;99.90;;;;;;5073347;28;20425;-92
2022/09/11 02:49:53;;;;;;;23.47;13.00;;;14.90;99.90;;;;;;5074624;28;20411;-90
2022/09/11 02:52:39;;;;;;;18.97;10.70;;;14.80;99.90;;;;;;5073991;28;20514;-94
2022/09/11 02:55:22;;;;;;;26.07;12.40;;;14.80;99.90;;;;;;5066008;28;20420;-94
2022/09/11 02:57:59;;;;;;;21.83;11.67;;;14.90;99.90;;;;;;5091317;28;20465;-91
2022/09/11 03:00:24;;;;;;;20.37;10.90;;;14.80;99.90;;;;;;5089978;28;20427;-91
2022/09/11 03:02:52;;;;;;;23.00;11.50;;;14.90;99.90;;;;;;5070368;28;20431;-87
2022/09/11 03:05:18;;;;;;;19.93;9.60;;;14.80;99.90;;;;;;5072320;28;20265;-87
2022/09/11 03:07:43;;;;;;;20.43;11.90;;;14.80;99.90;;;;;;5073704;28;20453;-89
2022/09/11 03:10:10;;;;;;;20.30;10.43;;;14.80;99.90;;;;;;5055962;28;20175;-88
2022/09/11 03:12:36;;;;;;;15.40;8.60;;;14.80;99.90;;;;;;5056195;28;20186;-88
2022/09/11 03:15:02;;;;;;;19.97;9.93;;;14.80;99.90;;;;;;5072994;28;20786;-87
2022/09/11 03:17:27;;;;;;;14.47;9.27;;;14.70;99.90;;;;;;5072574;28;20482;-89
2022/09/11 03:19:53;;;;;;;19.33;11.67;;;14.70;99.90;;;;;;5073810;28;20189;-90
2022/09/11 03:22:18;;;;;;;17.57;8.70;;;14.70;99.90;;;;;;5073821;28;20196;-89
2022/09/11 03:24:47;;;;;;;16.33;9.20;;;14.70;99.90;;;;;;5073842;28;20651;-91
2022/09/11 03:27:12;;;;;;;14.47;8.63;;;14.70;99.90;;;;;;5055713;28;20183;-89
2022/09/11 03:29:38;;;;;;;17.07;8.53;;;14.70;99.90;;;;;;5055561;28;20422;-87
2022/09/11 03:32:04;;;;;;;19.13;10.90;;;14.70;99.90;;;;;;5073369;28;20462;-88
2022/09/11 03:34:30;;;;;;;17.17;9.93;;;14.70;99.90;;;;;;5055171;28;20658;-88
2022/09/11 03:36:56;;;;;;;20.37;9.37;;;14.80;99.90;;;;;;5055244;28;20634;-87
2022/09/11 03:39:21;;;;;;;18.00;9.47;;;14.70;99.90;;;;;;5054230;28;20416;-86
2022/09/11 03:41:46;;;;;;;16.73;6.70;;;14.70;99.90;;;;;;5074044;28;20602;-89
2022/09/11 03:44:12;;;;;;;18.57;9.27;;;14.70;99.90;;;;;;5074267;28;20233;-87
2022/09/11 03:46:38;;;;;;;18.00;9.47;;;14.70;99.90;;;;;;5083929;28;20158;-86
2022/09/11 03:49:05;;;;;;;19.73;9.23;;;14.70;99.90;;;;;;5083535;28;20527;-86
2022/09/11 03:51:31;;;;;;;19.80;9.80;;;14.70;99.90;;;;;;5065882;28;20420;-86
2022/09/11 03:53:59;;;;;;;20.63;9.27;;;14.80;99.90;;;;;;5075355;28;20436;-87
2022/09/11 03:56:25;;;;;;;19.87;10.13;;;14.80;99.90;;;;;;5055537;28;20922;-87
2022/09/11 03:58:57;;;;;;;15.87;8.97;;;14.70;99.90;;;;;;5073344;28;20479;-91
2022/09/11 04:01:29;;;;;;;23.93;10.27;;;14.70;99.90;;;;;;5055515;28;20166;-89
2022/09/11 04:03:54;;;;;;;17.73;8.43;;;14.80;99.90;;;;;;5072835;28;20417;-86
2022/09/11 04:06:20;;;;;;;17.10;9.33;;;14.70;99.90;;;;;;5054653;28;20423;-90
2022/09/11 04:08:46;;;;;;;16.90;9.30;;;14.70;99.90;;;;;;5073252;28;20202;-90
2022/09/11 04:11:12;;;;;;;19.33;9.33;;;14.70;99.90;;;;;;5073413;28;20165;-92
2022/09/11 04:13:40;;;;;;;20.13;9.10;;;14.70;99.90;;;;;;5055806;28;20176;-89
2022/09/11 04:16:10;;;;;;;15.83;8.03;;;14.70;99.90;;;;;;5072624;28;20479;-86
2022/09/11 04:18:38;;;;;;;19.07;7.70;;;14.70;99.90;;;;;;5055357;28;20466;-89
2022/09/11 04:21:04;;;;;;;21.00;9.03;;;14.70;99.90;;;;;;5073421;28;20414;-86
2022/09/11 04:23:30;;;;;;;14.90;8.30;;;14.70;99.90;;;;;;5055607;28;20417;-92
2022/09/11 04:25:56;;;;;;;16.83;8.73;;;14.70;99.90;;;;;;5055841;28;21005;-93
2022/09/11 04:28:22;;;;;;;20.20;10.30;;;14.70;99.90;;;;;;5072385;28;20173;-86
2022/09/11 04:30:48;;;;;;;14.23;8.10;;;14.70;99.90;;;;;;5073420;28;20558;-89
2022/09/11 04:33:13;;;;;;;15.20;7.90;;;14.70;99.90;;;;;;5054937;28;20474;-89
2022/09/11 04:35:42;;;;;;;12.23;7.07;;;14.70;99.90;;;;;;5072336;28;20214;-93
2022/09/11 04:38:07;;;;;;;17.20;8.07;;;14.70;99.90;;;;;;5073648;28;20590;-90
2022/09/11 04:40:34;;;;;;;14.63;7.30;;;14.60;99.90;;;;;;5073681;28;20418;-91
2022/09/11 04:43:01;;;;;;;14.13;7.50;;;14.60;99.90;;;;;;5073357;28;20758;-89
2022/09/11 04:45:31;;;;;;;16.20;7.47;;;14.50;99.90;;;;;;5055461;28;20744;-89
2022/09/11 04:47:57;;;;;;;12.47;6.67;;;14.50;99.90;;;;;;5072754;28;20731;-86
2022/09/11 04:50:22;;;;;;;13.17;6.83;;;14.50;99.90;;;;;;5055249;28;20508;-87
2022/09/11 04:52:48;;;;;;;17.70;8.20;;;14.50;99.90;;;;;;5072092;28;20535;-88
2022/09/11 04:55:16;;;;;;;16.53;7.73;;;14.60;99.90;;;;;;5055454;28;20229;-87
2022/09/11 04:57:42;;;;;;;16.87;8.00;;;14.50;99.90;;;;;;5072384;28;20197;-93
2022/09/11 05:00:09;;;;;;;10.57;6.67;;;14.50;99.90;;;;;;5055499;28;20780;-87
2022/09/11 05:02:39;;;;;;;14.07;7.20;;;14.60;99.90;;;;;;5055223;28;20701;-90
2022/09/11 05:05:05;;;;;;;11.80;6.67;;;14.50;99.90;;;;;;5073065;28;20419;-89
2022/09/11 05:07:31;;;;;;;12.60;6.63;;;14.50;99.90;;;;;;5073016;28;20450;-91
2022/09/11 05:09:56;;;;;;;11.03;6.67;;;14.50;99.90;;;;;;5054912;28;20414;-88
2022/09/11 05:12:22;;;;;;;12.77;6.70;;;14.50;99.90;;;;;;5055145;28;20169;-89
2022/09/11 05:14:47;;;;;;;10.43;6.60;;;14.60;99.90;;;;;;5073182;28;20178;-88
2022/09/11 05:17:13;;;;;;;11.60;6.00;;;14.60;99.90;;;;;;5056408;28;20190;-90
2022/09/11 05:19:39;;;;;;;12.77;6.40;;;14.50;99.90;;;;;;5058421;28;20234;-87
2022/09/11 05:22:05;;;;;;;9.10;5.27;;;14.40;99.90;;;;;;5076034;28;20537;-92
2022/09/11 05:24:31;;;;;;;11.23;7.07;;;14.40;99.90;;;;;;5058066;28;20475;-88
2022/09/11 05:26:57;;;;;;;8.90;5.80;;;14.30;99.90;;;;;;5057885;28;20453;-89
2022/09/11 05:29:28;;;;;;;8.93;5.43;;;14.40;99.90;;;;;;5057784;28;20184;-88
2022/09/11 05:32:00;;;;;;;13.77;6.20;;;14.50;99.90;;;;;;5057796;28;20551;-89
2022/09/11 05:34:29;;;;;;;11.00;5.97;;;14.50;99.90;;;;;;5075778;28;20453;-87
2022/09/11 05:36:57;;;;;;;9.33;5.63;;;14.50;99.90;;;;;;5058086;28;20501;-92
2022/09/11 05:39:26;;;;;;;11.33;5.73;;;14.40;99.90;;;;;;5057776;28;20513;-87
2022/09/11 05:41:52;;;;;;;12.57;5.20;;;14.50;99.90;;;;;;5057364;28;20626;-87
2022/09/11 05:44:18;;;;;;;9.57;5.10;;;14.50;99.90;;;;;;5057755;28;20524;-89
2022/09/11 05:46:44;;;;;;;9.33;5.57;;;14.50;99.90;;;;;;5075555;28;20414;-90
2022/09/11 05:49:10;;;;;;;12.13;6.37;;;14.50;99.90;;;;;;5075336;28;20449;-89
2022/09/11 05:51:36;;;;;;;11.93;6.07;;;14.60;99.90;;;;;;5075776;28;20471;-87
2022/09/11 05:54:02;;;;;;;11.17;6.70;;;14.60;99.90;;;;;;5075758;28;20175;-92
2022/09/11 05:56:28;;;;;;;12.30;6.30;;;14.60;99.90;;;;;;5058762;28;20558;-92
2022/09/11 05:58:54;;;;;;;13.40;6.23;;;14.70;99.90;;;;;;5078552;28;20956;-90
2022/09/11 06:01:26;;;;;;;9.57;5.43;;;14.70;99.90;;;;;;5083496;28;20160;-94
2022/09/11 06:03:52;;;;;;;13.10;5.57;;;14.70;99.90;;;;;;5060457;28;20188;-85
2022/09/11 06:06:20;;;;;;;9.90;4.53;;;14.70;99.90;;;;;;5060649;28;20464;-85
2022/09/11 06:08:47;;;;;;;10.40;5.53;;;14.80;99.90;;;;;;5050598;28;20801;-90
2022/09/11 06:11:14;;;;;;;10.43;5.23;;;14.70;99.90;;;;;;5056087;23;20511;-93
2022/09/11 06:13:42;;;;;;;9.70;5.27;;;14.70;99.90;;;;;;5047343;28;20423;-91
2022/09/11 06:16:13;;;;;;;10.50;5.50;;;14.70;99.90;;;;;;5015812;28;20944;-95
2022/09/11 06:18:38;;;;;;;13.17;5.33;;;14.80;99.90;;;;;;5020550;28;20845;-91
2022/09/11 06:21:06;;;;;;;12.10;6.33;;;14.80;99.90;;;;;;5016464;28;20421;-85
2022/09/11 06:23:34;;;;;;;12.80;6.00;;;14.90;99.90;;;;;;5016274;28;20185;-93
2022/09/11 06:26:09;;;;;;;14.63;6.83;;;15.00;99.90;;;;;;5015952;28;20535;-91
2022/09/11 06:28:37;;;;;;;13.43;5.80;;;15.00;99.90;;;;;;5014948;28;20425;-87
2022/09/11 06:31:05;;;;;;;13.40;6.50;;;14.90;99.90;;;;;;4997495;28;20416;-87
2022/09/11 06:33:32;;;;;;;11.03;6.10;;;15.00;99.90;;;;;;4997312;28;20887;-88
2022/09/11 06:36:00;;;;;;;8.60;5.23;;;15.00;99.90;;;;;;5015253;28;20413;-90
2022/09/11 06:38:26;;;;;;;12.00;6.17;;;15.10;99.90;;;;;;4998436;28;20483;-94
2022/09/11 06:40:55;;;;;;;10.53;6.03;;;15.20;99.90;;;;;;5028996;28;20529;-92
2022/09/11 06:43:21;;;;;;;7.23;4.53;;;15.30;99.90;;;;;;5034295;28;20486;-90
2022/09/11 06:45:47;;;;;;;10.60;6.43;;;15.40;99.90;;;;;;5035405;28;20415;-90
2022/09/11 06:48:14;;;;;;;8.27;5.60;;;15.60;99.90;;;;;;5034935;28;20252;-91
2022/09/11 06:50:42;;;;;;;9.60;6.30;;;15.60;99.90;;;;;;5033986;28;20428;-90
2022/09/11 06:53:09;;;;;;;10.10;5.70;;;15.60;99.90;;;;;;5034096;28;20493;-92
2022/09/11 06:55:35;;;;;;;8.60;5.73;;;15.70;99.90;;;;;;5035657;28;20468;-94
2022/09/11 06:58:04;;;;;;;9.63;5.33;;;15.90;99.90;;;;;;5017132;28;20469;-92
2022/09/11 07:00:32;;;;;;;8.17;5.17;;;16.00;99.90;;;;;;5035452;28;20213;-92
2022/09/11 07:02:58;;;;;;;7.57;3.93;;;16.00;99.90;;;;;;5035268;28;20410;-92
2022/09/11 07:05:24;;;;;;;8.53;5.57;;;15.80;99.90;;;;;;5018136;28;20555;-92
2022/09/11 07:07:54;;;;;;;6.13;4.30;;;16.00;99.90;;;;;;5036171;28;20173;-91
2022/09/11 07:10:21;;;;;;;9.70;5.50;;;16.10;99.90;;;;;;5018581;28;20469;-95
2022/09/11 07:12:46;;;;;;;6.47;4.80;;;16.40;99.90;;;;;;5018625;28;20425;-91
2022/09/11 07:15:12;;;;;;;6.77;4.80;;;16.40;99.90;;;;;;5035279;28;20400;-93
2022/09/11 07:17:37;;;;;;;7.20;4.87;;;16.30;99.90;;;;;;5017602;28;20211;-92
2022/09/11 07:20:04;;;;;;;9.00;5.40;;;16.30;99.90;;;;;;5034681;28;20190;-93
2022/09/11 07:22:30;;;;;;;6.87;4.03;;;16.40;99.90;;;;;;5034070;28;20197;-90
2022/09/11 07:24:55;;;;;;;5.10;4.50;;;16.30;99.90;;;;;;5035170;28;20458;-92
2022/09/11 07:27:21;;;;;;;6.80;3.90;;;16.30;99.90;;;;;;5017652;28;20630;-92
2022/09/11 07:29:47;;;;;;;5.97;4.37;;;16.20;99.90;;;;;;5034652;28;20178;-93
2022/09/11 07:32:13;;;;;;;4.63;3.67;;;16.00;99.90;;;;;;5034407;28;20630;-89
2022/09/11 07:34:40;;;;;;;5.40;3.40;;;16.00;99.90;;;;;;5016577;28;20519;-88
2022/09/11 07:37:06;;;;;;;6.60;4.43;;;16.00;99.90;;;;;;5016305;28;20498;-91
2022/09/11 07:39:31;;;;;;;7.60;4.40;;;16.00;99.90;;;;;;5016337;28;20946;-94
2022/09/11 07:41:56;;;;;;;4.40;3.27;;;16.00;99.90;;;;;;5034329;28;20216;-88
2022/09/11 07:44:22;;;;;;;5.30;3.10;;;16.00;99.90;;;;;;5017339;28;20699;-91
2022/09/11 07:46:51;;;;;;;6.33;3.80;;;16.20;99.90;;;;;;5017633;28;20169;-90
2022/09/11 07:49:17;;;;;;;4.30;3.20;;;16.30;99.90;;;;;;5022411;28;20228;-94
2022/09/11 07:51:43;;;;;;;5.00;4.20;;;16.30;99.90;;;;;;5021755;28;20436;-92
2022/09/11 07:54:09;;;;;;;5.70;3.23;;;16.30;99.90;;;;;;5024790;28;20528;-93
2022/09/11 07:56:35;;;;;;;5.40;4.33;;;16.40;99.90;;;;;;5017752;28;20209;-92
2022/09/11 07:59:01;;;;;;;6.00;3.70;;;17.00;99.90;;;;;;5034469;28;20504;-92
2022/09/11 08:01:29;;;;;;;4.90;3.33;;;18.50;99.90;;;;;;5034588;28;20178;-92
2022/09/11 08:03:57;;;;;;;3.63;3.10;;;19.50;99.90;;;;;;5034139;28;20510;-92
2022/09/11 08:06:23;;;;;;;3.83;2.80;;;21.80;99.90;;;;;;5034492;28;20419;-92
2022/09/11 08:09:03;;;;;;;2.67;1.77;;;23.00;99.90;;;;;;5016970;28;20408;-92
2022/09/11 08:11:30;;;;;;;3.57;2.20;;;20.90;99.90;;;;;;5016641;28;20468;-89
2022/09/11 08:13:56;;;;;;;3.47;1.90;;;19.80;45.10;;;;;;5034086;28;20948;-91
2022/09/11 08:16:24;;;;;;;2.80;1.80;;;19.80;91.90;;;;;;5016425;28;20507;-92
2022/09/11 08:18:50;;;;;;;2.50;2.03;;;19.10;99.90;;;;;;5015799;28;20527;-89
2022/09/11 08:21:17;;;;;;;3.87;2.03;;;18.70;99.90;;;;;;5033555;28;20491;-88
2022/09/11 08:23:44;;;;;;;1.70;1.20;;;18.10;99.90;;;;;;5016873;28;20424;-93
2022/09/11 08:26:12;;;;;;;3.90;2.67;;;17.80;99.90;;;;;;5035687;28;20420;-92
2022/09/11 08:28:39;;;;;;;1.70;1.40;;;17.60;99.90;;;;;;5017391;28;20456;-91
2022/09/11 08:31:05;;;;;;;2.50;1.40;;;17.50;99.90;;;;;;5017091;28;20416;-91
2022/09/11 08:33:34;;;;;;;1.90;1.10;;;17.40;99.90;;;;;;5034791;28;20423;-91
2022/09/11 08:36:07;;;;;;;2.17;0.90;;;17.40;99.90;;;;;;5017107;28;20506;-94
2022/09/11 08:38:33;;;;;;;2.80;1.13;;;17.50;99.90;;;;;;5034606;28;20501;-93
2022/09/11 08:41:27;;;;;;;3.43;1.80;;;17.60;99.90;;;;;;5017115;28;20768;-93
2022/09/11 08:43:57;;;;;;;2.90;1.57;;;17.70;99.90;;;;;;5010021;28;20421;-91
2022/09/11 08:46:34;;;;;;;1.70;1.03;;;17.90;99.90;;;;;;5018306;28;20429;-91
2022/09/11 08:49:24;;;;;;;1.63;1.33;;;18.00;99.90;;;;;;5036327;28;20916;-93
2022/09/11 08:51:51;;;;;;;1.70;1.20;;;18.00;99.90;;;;;;5016753;28;20416;-91
2022/09/11 08:54:32;;;;;;;1.20;0.70;;;18.10;99.90;;;;;;5007960;28;20978;-93
2022/09/11 08:57:15;;;;;;;1.40;0.93;;;18.00;99.90;;;;;;5001574;28;20498;-92
2022/09/11 08:59:53;;;;;;;4.60;1.33;;;18.20;99.90;;;;;;4996910;28;20511;-87
2022/09/11 09:03:12;;;;;;;0.83;0.60;;;18.70;99.90;;;;;;4998272;28;20537;-93
2022/09/11 09:05:54;;;;;;;3.47;1.50;;;18.60;99.90;;;;;;4956722;29;20430;-90
2022/09/11 09:08:23;;;;;;;2.30;1.37;;;18.30;99.90;;;;;;4957610;29;20936;-91
2022/09/11 09:10:50;;;;;;;2.10;1.27;;;18.20;99.90;;;;;;5001873;28;20525;-86
2022/09/11 09:13:31;;;;;;;1.90;0.90;;;18.30;99.90;;;;;;5017556;28;20408;-87
2022/09/11 09:16:18;;;;;;;1.67;0.73;;;18.50;99.90;;;;;;5017206;28;20417;-89
2022/09/11 09:18:49;;;;;;;3.67;0.67;;;19.40;99.90;;;;;;5017606;28;20478;-87
2022/09/11 09:21:23;;;;;;;2.00;0.97;;;21.90;99.90;;;;;;5016452;28;20397;-92
2022/09/11 09:23:58;;;;;;;1.30;0.83;;;21.70;99.90;;;;;;5017350;28;20405;-92
2022/09/11 09:26:37;;;;;;;1.30;1.00;;;21.60;99.90;;;;;;5016866;28;20868;-93
2022/09/11 09:29:07;;;;;;;2.00;0.93;;;20.40;1.00;;;;;;5015497;28;20475;-86
2022/09/11 09:31:37;;;;;;;1.20;0.60;;;20.00;1.00;;;;;;5020329;28;20413;-94
2022/09/11 09:34:16;;;;;;;0.87;0.43;;;19.90;1.00;;;;;;5033452;28;20413;-92
2022/09/11 09:37:06;;;;;;;1.40;0.83;;;22.70;1.00;;;;;;5002480;28;20425;-87
2022/09/11 09:39:35;;;;;;;0.90;0.40;;;25.10;99.90;;;;;;5040780;28;20855;-88
2022/09/11 09:42:27;;;;;;;1.00;0.37;;;25.30;99.90;;;;;;5017214;28;20422;-86
2022/09/11 09:45:11;;;;;;;1.77;0.60;;;23.10;99.90;;;;;;5042321;28;20425;-87
2022/09/11 09:47:43;;;;;;;0.60;0.30;;;21.60;99.90;;;;;;5036693;28;20413;-90
2022/09/11 09:50:23;;;;;;;0.90;0.40;;;20.80;99.90;;;;;;5036598;28;20479;-92
2022/09/11 09:52:49;;;;;;;1.07;0.43;;;23.40;5.70;;;;;;5019800;28;20425;-91
2022/09/11 09:55:17;;;;;;;1.90;0.40;;;24.20;1.00;;;;;;5019784;28;20460;-87
2022/09/11 09:57:46;;;;;;;0.90;0.40;;;26.00;99.90;;;;;;5036907;28;20536;-89
2022/09/11 10:00:18;;;;;;;0.90;0.40;;;26.70;99.90;;;;;;5019359;28;20428;-92
2022/09/11 10:02:53;;;;;;;1.17;0.20;;;24.40;99.90;;;;;;5034370;28;20508;-92
2022/09/11 10:05:28;;;;;;;1.10;0.40;;;22.40;1.00;;;;;;5018056;28;20428;-86
2022/09/11 10:08:05;;;;;;;1.33;0.53;;;21.40;99.90;;;;;;5033894;28;20404;-86
2022/09/11 10:10:36;;;;;;;0.90;0.73;;;21.80;99.90;;;;;;5015513;28;20828;-86
2022/09/11 10:13:19;;;;;;;1.57;0.90;;;24.00;1.00;;;;;;5012975;28;20709;-86
2022/09/11 10:15:47;;;;;;;0.87;0.47;;;24.80;99.90;;;;;;5013541;28;20418;-86
2022/09/11 10:18:33;;;;;;;0.80;0.60;;;26.40;99.90;;;;;;5013639;28;20461;-85
2022/09/11 10:21:28;;;;;;;1.23;0.60;;;25.80;99.90;;;;;;5012719;28;20417;-86
2022/09/11 10:24:01;;;;;;;1.80;0.63;;;23.70;99.90;;;;;;5006912;28;20422;-86
2022/09/11 10:26:42;;;;;;;1.27;0.90;;;22.50;99.90;;;;;;5013662;28;20417;-86
2022/09/11 10:29:23;;;;;;;0.60;0.30;;;22.00;99.90;;;;;;5013657;28;20410;-85
2022/09/11 10:32:15;;;;;;;1.10;0.30;;;23.40;1.00;;;;;;5013550;28;20837;-87
2022/09/11 10:34:41;;;;;;;0.90;0.60;;;23.00;1.00;;;;;;5013806;28;20441;-86
2022/09/11 10:37:15;;;;;;;0.80;0.30;;;22.50;1.00;;;;;;5013371;28;20465;-86
2022/09/11 10:39:43;;;;;;;0.87;0.67;;;23.30;99.90;;;;;;5012763;28;20201;-86
2022/09/11 10:42:20;;;;;;;1.20;0.63;;;22.20;1.00;;;;;;5013515;28;20425;-88
2022/09/11 10:44:48;;;;;;;1.10;0.47;;;21.40;99.90;;;;;;5013375;28;20794;-86
2022/09/11 10:47:17;;;;;;;1.47;0.90;;;20.90;86.10;;;;;;5012898;28;20448;-85
2022/09/11 10:49:45;;;;;;;0.90;0.70;;;20.90;1.00;;;;;;5013170;28;20453;-86
2022/09/11 10:52:10;;;;;;;1.10;0.40;;;20.90;49.60;;;;;;5014312;28;20419;-90
2022/09/11 10:54:58;;;;;;;0.90;0.30;;;20.70;99.90;;;;;;5014564;28;20426;-89
2022/09/11 10:57:42;;;;;;;1.43;0.60;;;20.50;1.00;;;;;;5015635;28;20191;-90
2022/09/11 11:00:24;;;;;;;0.60;0.40;;;23.00;99.90;;;;;;5015310;28;20926;-88
2022/09/11 11:02:54;;;;;;;1.07;0.40;;;25.20;99.90;;;;;;5011351;28;20484;-86
2022/09/11 11:05:56;;;;;;;1.13;0.47;;;26.20;99.90;;;;;;5012085;28;20434;-88
2022/09/11 11:08:37;;;;;;;1.70;0.40;;;26.30;99.90;;;;;;5013267;28;20448;-88
2022/09/11 11:11:16;;;;;;;0.90;0.40;;;27.00;99.90;;;;;;5012095;28;20568;-88
2022/09/11 11:14:27;;;;;;;0.87;0.30;;;24.70;99.90;;;;;;5012431;28;20468;-88
2022/09/11 11:17:04;;;;;;;0.70;0.30;;;24.30;99.90;;;;;;5013233;28;20431;-87
2022/09/11 11:19:45;;;;;;;1.00;0.43;;;25.70;99.90;;;;;;5011084;28;20471;-87
2022/09/11 11:22:38;;;;;;;0.80;0.30;;;26.60;99.90;;;;;;5012983;28;20509;-87
2022/09/11 11:25:33;;;;;;;0.60;0.27;;;27.10;99.90;;;;;;5013979;28;20465;-89
2022/09/11 11:28:36;;;;;;;0.80;0.30;;;27.50;99.90;;;;;;5013765;28;20402;-86
2022/09/11 11:31:27;;;;;;;1.13;0.30;;;27.90;99.70;;;;;;4994649;28;20433;-85
2022/09/11 11:34:19;;;;;;;1.10;0.33;;;27.20;91.80;;;;;;5012137;28;20425;-88
2022/09/11 11:36:51;;;;;;;1.23;0.33;;;25.10;90.60;;;;;;5002661;28;20469;-88
2022/09/11 11:39:37;;;;;;;1.00;0.37;;;24.10;99.90;;;;;;4993720;28;21298;-88
2022/09/11 11:42:13;;;;;;;0.90;0.50;;;25.80;99.90;;;;;;4959632;28;20423;-87
2022/09/11 11:44:47;;;;;;;1.33;0.37;;;26.40;99.90;;;;;;4993228;28;20521;-87
2022/09/11 11:47:15;;;;;;;0.60;0.20;;;27.00;99.90;;;;;;4991435;28;20577;-87
2022/09/11 11:49:56;;;;;;;1.17;0.20;;;27.10;94.80;;;;;;4991443;28;20450;-88
2022/09/11 11:52:31;;;;;;;0.50;0.20;;;27.30;93.70;;;;;;5005141;28;20414;-84
2022/09/11 11:55:16;;;;;;;1.23;0.30;;;27.70;91.40;;;;;;5011477;28;20813;-88
2022/09/11 11:58:20;;;;;;;0.60;0.20;;;28.10;58.80;;;;;;5008450;28;20465;-86
2022/09/11 12:00:54;;;;;;;0.60;0.20;;;28.00;45.60;;;;;;4992711;28;20425;-87
2022/09/11 12:03:31;;;;;;;0.60;0.30;;;26.80;45.90;;;;;;5008620;28;20425;-87
2022/09/11 12:05:57;;;;;;;1.30;0.40;;;27.20;52.30;;;;;;5011307;28;20441;-87
2022/09/11 12:08:22;;;;;;;0.50;0.20;;;26.50;54.10;;;;;;5011262;28;20776;-88
2022/09/11 12:11:02;;;;;;;0.60;0.20;;;25.50;50.50;;;;;;5009414;28;20238;-86
2022/09/11 12:13:35;;;;;;;0.70;0.50;;;24.40;62.70;;;;;;5011001;28;20167;-86
2022/09/11 12:16:14;;;;;;;1.40;0.20;;;23.30;92.20;;;;;;5010680;28;20421;-87
2022/09/11 12:18:58;;;;;;;0.53;0.20;;;23.00;99.90;;;;;;4994150;28;21080;-87
2022/09/11 12:21:23;;;;;;;0.93;0.30;;;22.90;99.90;;;;;;5014101;28;20468;-89
2022/09/11 12:23:50;;;;;;;1.10;0.27;;;22.60;99.90;;;;;;5013848;28;20418;-89
2022/09/11 12:26:21;;;;;;;0.80;0.40;;;22.20;99.90;;;;;;4997118;28;20172;-89
2022/09/11 12:28:48;;;;;;;0.60;0.20;;;22.10;1.00;;;;;;5005503;28;20491;-88
2022/09/11 12:31:16;;;;;;;0.80;0.37;;;22.00;1.00;;;;;;5002768;28;20784;-91
2022/09/11 12:33:46;;;;;;;0.80;0.33;;;21.80;1.00;;;;;;4998259;28;20422;-87
2022/09/11 12:36:18;;;;;;;0.83;0.20;;;21.80;1.00;;;;;;5013765;28;20414;-87
2022/09/11 12:38:52;;;;;;;0.90;0.20;;;21.90;99.90;;;;;;5015023;28;20886;-88
2022/09/11 12:41:34;;;;;;;0.70;0.40;;;21.90;99.90;;;;;;5012985;28;21227;-87
2022/09/11 12:44:02;;;;;;;0.90;0.60;;;22.00;1.00;;;;;;5004102;28;20485;-87
2022/09/11 12:46:27;;;;;;;1.20;0.50;;;22.20;99.90;;;;;;4977840;28;20422;-85
2022/09/11 12:49:17;;;;;;;0.60;0.37;;;22.30;99.90;;;;;;4978019;28;20958;-87
2022/09/11 12:51:59;;;;;;;1.13;0.20;;;23.80;99.90;;;;;;4978859;28;20203;-88
2022/09/11 12:54:37;;;;;;;1.17;0.30;;;24.80;99.90;;;;;;4998729;28;20616;-89
2022/09/11 12:57:07;;;;;;;1.17;0.30;;;24.50;99.90;;;;;;5023000;28;20413;-86
2022/09/11 12:59:41;;;;;;;1.30;0.33;;;24.40;99.90;;;;;;5034993;28;20440;-88
2022/09/11 13:02:27;;;;;;;0.70;0.20;;;25.00;99.90;;;;;;5035692;28;20417;-88
2022/09/11 13:04:54;;;;;;;0.70;0.30;;;25.50;99.90;;;;;;5035245;28;20897;-88